createdAt,value
2018-04-19T00:00:19.659Z,92.21
2018-04-19T00:02:45.405Z,92.81
2018-04-19T00:05:11.171Z,90.54
2018-04-19T00:07:36.923Z,89.96
2018-04-19T00:10:02.669Z,90.58
2018-04-19T00:12:28.432Z,92.24
2018-04-19T00:14:54.198Z,93.51
2018-04-19T00:17:19.936Z,92.91
2018-04-19T00:19:45.680Z,93.28
2018-04-19T00:22:11.460Z,92.75
2018-04-19T00:24:37.188Z,90.67
2018-04-19T00:27:02.935Z,90.09
2018-04-19T00:29:28.711Z,92.74
2018-04-19T00:31:54.449Z,90.73
2018-04-19T00:34:20.208Z,90.27
2018-04-19T00:36:45.952Z,90.26
2018-04-19T00:39:11.713Z,90.78
2018-04-19T00:41:37.465Z,93.03
2018-04-19T00:44:03.230Z,92.61
2018-04-19T00:46:28.976Z,93.60
2018-04-19T00:48:54.741Z,93.48
2018-04-19T00:51:20.482Z,90.59
2018-04-19T00:53:46.249Z,90.71
2018-04-19T00:56:12.000Z,94.39
2018-04-19T00:58:37.744Z,93.23
2018-04-19T01:01:03.490Z,92.22
2018-04-19T01:03:29.245Z,91.53
2018-04-19T01:05:54.984Z,91.75
2018-04-19T01:08:20.716Z,91.25
2018-04-19T01:10:46.456Z,93.12
2018-04-19T01:13:12.226Z,92.31
2018-04-19T01:15:37.984Z,91.74
2018-04-19T01:18:03.732Z,91.59
2018-04-19T01:20:29.501Z,92.10
2018-04-19T01:22:55.237Z,91.74
2018-04-19T01:25:20.988Z,91.69
2018-04-19T01:27:46.727Z,94.46
2018-04-19T01:30:12.471Z,93.96
2018-04-19T01:32:38.208Z,94.27
2018-04-19T01:35:03.954Z,93.33
2018-04-19T01:37:29.693Z,94.75
2018-04-19T01:39:55.460Z,93.68
2018-04-19T01:42:21.197Z,92.48
2018-04-19T01:44:46.960Z,92.38
2018-04-19T01:47:12.706Z,92.34
2018-04-19T01:49:38.456Z,93.81
2018-04-19T01:52:04.218Z,94.87
2018-04-19T01:54:29.944Z,94.44
2018-04-19T01:56:55.685Z,92.95
2018-04-19T01:59:21.409Z,93.41
2018-04-19T02:01:47.160Z,96.01
2018-04-19T02:04:12.900Z,95.42
2018-04-19T02:06:38.653Z,94.08
2018-04-19T02:09:04.400Z,93.38
2018-04-19T02:11:30.152Z,93.05
2018-04-19T02:13:55.901Z,95.34
2018-04-19T02:16:21.648Z,96.60
2018-04-19T02:18:47.381Z,96.81
2018-04-19T02:21:13.116Z,93.97
2018-04-19T02:23:38.849Z,93.59
2018-04-19T02:26:04.599Z,93.39
2018-04-19T02:28:30.345Z,95.63
2018-04-19T02:30:56.080Z,95.27
2018-04-19T02:33:21.817Z,93.59
2018-04-19T02:35:47.602Z,94.25
2018-04-19T02:38:13.334Z,95.97
2018-04-19T02:40:39.069Z,97.14
2018-04-19T02:43:04.811Z,97.65
2018-04-19T02:45:30.556Z,96.07
2018-04-19T02:47:56.296Z,94.51
2018-04-19T02:50:22.048Z,94.72
2018-04-19T02:52:47.791Z,94.71
2018-04-19T02:55:13.526Z,96.23
2018-04-19T02:57:39.275Z,97.65
2018-04-19T03:00:05.024Z,97.20
2018-04-19T03:02:30.768Z,94.70
2018-04-19T03:04:56.511Z,95.02
2018-04-19T03:07:22.271Z,94.93
2018-04-19T03:09:48.020Z,95.75
2018-04-19T03:12:13.768Z,94.18
2018-04-19T03:14:39.511Z,93.76
2018-04-19T03:17:05.258Z,94.14
2018-04-19T03:19:31.025Z,97.36
2018-04-19T03:21:56.768Z,96.49
2018-04-19T03:24:22.531Z,98.21
2018-04-19T03:26:48.279Z,98.66
2018-04-19T03:29:14.032Z,99.09
2018-04-19T03:31:39.775Z,98.93
2018-04-19T03:34:05.525Z,95.43
2018-04-19T03:36:31.259Z,94.26
2018-04-19T03:38:56.997Z,95.08
2018-04-19T03:41:22.744Z,98.16
2018-04-19T03:43:48.492Z,99.05
2018-04-19T03:46:14.233Z,97.46
2018-04-19T03:48:39.993Z,94.71
2018-04-19T03:51:05.740Z,94.62
2018-04-19T03:53:31.485Z,95.06
2018-04-19T03:55:57.220Z,94.29
2018-04-19T03:58:22.980Z,94.30
2018-04-19T04:00:48.724Z,94.61
2018-04-19T04:03:14.466Z,95.35
2018-04-19T04:05:40.217Z,94.75
2018-04-19T04:08:05.949Z,98.08
2018-04-19T04:10:31.689Z,97.90
2018-04-19T04:12:57.428Z,96.37
2018-04-19T04:15:23.185Z,94.86
2018-04-19T04:18:01.456Z,95.04
2018-04-19T04:20:39.460Z,94.77
2018-04-19T04:23:21.580Z,95.72
2018-04-19T04:25:47.333Z,95.68
2018-04-19T04:28:13.072Z,94.73
2018-04-19T04:30:39.608Z,94.62
2018-04-19T04:33:05.348Z,94.25
2018-04-19T04:35:31.109Z,94.47
2018-04-19T04:37:56.856Z,96.03
2018-04-19T04:40:22.616Z,97.85
2018-04-19T04:42:48.353Z,96.81
2018-04-19T04:45:14.091Z,95.15
2018-04-19T04:47:39.843Z,95.80
2018-04-19T04:50:05.602Z,96.42
2018-04-19T04:52:31.340Z,97.59
2018-04-19T04:54:57.080Z,96.75
2018-04-19T04:57:22.819Z,95.62
2018-04-19T04:59:48.579Z,95.87
2018-04-19T05:02:14.325Z,95.27
2018-04-19T05:04:40.063Z,96.19
2018-04-19T05:07:05.824Z,96.96
2018-04-19T05:09:31.571Z,96.91
2018-04-19T05:11:57.325Z,97.38
2018-04-19T05:14:23.158Z,95.42
2018-04-19T05:16:48.826Z,94.93
2018-04-19T05:19:14.552Z,96.43
2018-04-19T05:21:40.300Z,97.51
2018-04-19T05:24:06.031Z,96.37
2018-04-19T05:26:31.776Z,96.73
2018-04-19T05:28:57.522Z,96.52
2018-04-19T05:31:23.272Z,96.93
2018-04-19T05:33:49.008Z,97.94
2018-04-19T05:36:14.744Z,97.65
2018-04-19T05:38:40.502Z,97.15
2018-04-19T05:41:06.240Z,98.83
2018-04-19T05:43:31.964Z,97.71
2018-04-19T05:45:57.708Z,96.92
2018-04-19T05:48:23.454Z,96.74
2018-04-19T05:50:49.221Z,95.37
2018-04-19T05:53:14.960Z,94.64
2018-04-19T05:55:40.691Z,94.75
2018-04-19T05:58:13.497Z,95.03
2018-04-19T06:00:39.244Z,93.74
2018-04-19T06:03:05.039Z,93.28
2018-04-19T06:05:30.712Z,93.73
2018-04-19T06:07:56.474Z,92.84
2018-04-19T06:10:22.210Z,92.08
2018-04-19T06:12:47.966Z,91.61
2018-04-19T06:15:13.715Z,91.99
2018-04-19T06:17:39.463Z,90.33
2018-04-19T06:20:05.210Z,89.64
2018-04-19T06:22:30.969Z,89.79
2018-04-19T06:24:56.761Z,89.48
2018-04-19T06:27:22.456Z,88.98
2018-04-19T06:29:48.188Z,88.44
2018-04-19T06:32:13.940Z,87.58
2018-04-19T06:34:39.691Z,88.45
2018-04-19T06:37:05.428Z,87.04
2018-04-19T06:39:31.173Z,86.55
2018-04-19T06:41:56.921Z,85.29
2018-04-19T06:44:22.682Z,84.50
2018-04-19T06:46:48.421Z,85.26
2018-04-19T06:49:14.156Z,83.74
2018-04-19T06:51:39.892Z,82.76
2018-04-19T06:54:05.636Z,81.63
2018-04-19T06:56:31.364Z,80.40
2018-04-19T06:58:57.098Z,82.56
2018-04-19T07:01:22.832Z,81.73
2018-04-19T07:03:48.576Z,80.06
2018-04-19T07:06:14.303Z,79.32
2018-04-19T07:08:40.062Z,79.86
2018-04-19T07:11:05.804Z,78.82
2018-04-19T07:13:31.546Z,77.31
2018-04-19T07:15:57.284Z,77.25
2018-04-19T07:18:23.024Z,77.09
2018-04-19T07:20:48.760Z,74.07
2018-04-19T07:23:14.507Z,73.86
2018-04-19T07:25:40.236Z,73.56
2018-04-19T07:28:13.004Z,71.13
2018-04-19T07:30:38.755Z,70.72
2018-04-19T07:33:04.488Z,69.97
2018-04-19T07:35:30.233Z,70.24
2018-04-19T07:37:55.965Z,69.48
2018-04-19T07:40:21.720Z,68.94
2018-04-19T07:42:47.446Z,67.83
2018-04-19T07:45:13.206Z,67.04
2018-04-19T07:47:38.940Z,65.87
2018-04-19T07:50:04.712Z,66.64
2018-04-19T07:52:30.462Z,64.83
2018-04-19T07:54:56.210Z,64.36
2018-04-19T07:57:21.951Z,63.56
2018-04-19T07:59:47.704Z,64.17
2018-04-19T08:02:13.448Z,63.67
2018-04-19T08:04:39.200Z,62.23
2018-04-19T08:07:04.929Z,62.10
2018-04-19T08:09:30.707Z,61.88
2018-04-19T08:11:56.449Z,62.13
2018-04-19T08:14:22.180Z,61.25
2018-04-19T08:16:47.937Z,60.93
2018-04-19T08:19:13.673Z,61.35
2018-04-19T08:21:39.419Z,60.84
2018-04-19T08:24:05.154Z,59.07
2018-04-19T08:26:30.916Z,58.96
2018-04-19T08:28:56.647Z,58.88
2018-04-19T08:31:22.417Z,59.00
2018-04-19T08:33:48.146Z,58.01
2018-04-19T08:36:13.908Z,56.63
2018-04-19T08:38:39.665Z,56.60
2018-04-19T08:41:05.415Z,56.41
2018-04-19T08:43:31.144Z,55.75
2018-04-19T08:45:56.892Z,55.72
2018-04-19T08:48:22.637Z,56.19
2018-04-19T08:50:48.388Z,55.98
2018-04-19T08:53:14.134Z,54.57
2018-04-19T08:55:39.868Z,55.95
2018-04-19T08:58:05.604Z,55.76
2018-04-19T09:00:31.324Z,54.76
2018-04-19T09:02:57.106Z,54.25
2018-04-19T09:05:22.837Z,53.46
2018-04-19T09:07:48.581Z,54.36
2018-04-19T09:10:14.330Z,51.67
2018-04-19T09:12:40.089Z,51.40
2018-04-19T09:15:05.824Z,50.84
2018-04-19T09:17:31.584Z,50.67
2018-04-19T09:19:57.328Z,50.97
2018-04-19T09:22:23.148Z,52.23
2018-04-19T09:24:48.836Z,49.69
2018-04-19T09:27:14.568Z,48.54
2018-04-19T09:29:40.319Z,49.47
2018-04-19T09:32:06.061Z,48.26
2018-04-19T09:34:31.827Z,48.88
2018-04-19T09:36:57.568Z,48.78
2018-04-19T09:39:23.306Z,46.50
2018-04-19T09:41:49.057Z,47.90
2018-04-19T09:44:14.814Z,45.99
2018-04-19T09:46:40.608Z,49.74
2018-04-19T09:49:06.320Z,45.52
2018-04-19T09:51:32.071Z,46.55
2018-04-19T09:53:57.863Z,46.46
2018-04-19T09:56:23.572Z,45.86
2018-04-19T09:59:01.735Z,45.62
2018-04-19T10:01:27.481Z,44.67
2018-04-19T10:03:53.243Z,44.20
2018-04-19T10:06:18.969Z,44.48
2018-04-19T10:08:44.720Z,44.37
2018-04-19T10:11:10.470Z,43.98
2018-04-19T10:13:36.207Z,43.82
2018-04-19T10:16:02.028Z,42.53
2018-04-19T10:18:27.707Z,43.03
2018-04-19T10:20:53.472Z,42.14
2018-04-19T10:23:19.218Z,43.03
2018-04-19T10:25:44.973Z,41.94
2018-04-19T10:28:10.710Z,42.32
2018-04-19T10:30:36.449Z,41.00
2018-04-19T10:33:02.218Z,43.41
2018-04-19T10:35:27.972Z,40.23
2018-04-19T10:37:53.712Z,41.30
2018-04-19T10:40:19.461Z,41.17
2018-04-19T10:42:45.203Z,42.00
2018-04-19T10:45:10.955Z,42.46
2018-04-19T10:47:36.700Z,42.50
2018-04-19T10:50:02.452Z,41.44
2018-04-19T10:52:28.193Z,41.49
2018-04-19T10:54:53.958Z,42.09
2018-04-19T10:57:19.695Z,41.05
2018-04-19T10:59:45.441Z,39.41
2018-04-19T11:02:11.193Z,41.44
2018-04-19T11:04:36.942Z,41.73
2018-04-19T11:07:02.704Z,40.46
2018-04-19T11:09:28.449Z,40.41
2018-04-19T11:11:54.205Z,41.44
2018-04-19T11:14:19.947Z,42.12
2018-04-19T11:16:45.709Z,40.82
2018-04-19T11:19:11.461Z,41.67
2018-04-19T11:21:37.205Z,40.98
2018-04-19T11:24:02.940Z,41.03
2018-04-19T11:26:28.681Z,41.96
2018-04-19T11:28:54.432Z,41.81
2018-04-19T11:31:20.193Z,39.54
2018-04-19T11:33:45.929Z,40.50
2018-04-19T11:36:11.682Z,38.41
2018-04-19T11:38:37.411Z,38.78
2018-04-19T11:41:03.163Z,39.33
2018-04-19T11:43:28.922Z,39.10
2018-04-19T11:45:54.661Z,39.25
2018-04-19T11:48:20.412Z,39.08
2018-04-19T11:50:46.148Z,39.21
2018-04-19T11:53:11.908Z,38.21
2018-04-19T11:55:37.656Z,38.83
2018-04-19T11:58:03.393Z,38.41
2018-04-19T12:00:29.139Z,37.52
2018-04-19T12:02:54.892Z,36.50
2018-04-19T12:05:20.644Z,36.60
2018-04-19T12:07:46.396Z,37.63
2018-04-19T12:10:12.145Z,35.63
2018-04-19T12:12:37.892Z,34.82
2018-04-19T12:15:03.638Z,36.02
2018-04-19T12:17:29.393Z,35.18
2018-04-19T12:19:55.148Z,34.09
2018-04-19T12:22:20.887Z,34.39
2018-04-19T12:24:46.649Z,34.05
2018-04-19T12:27:12.400Z,34.28
2018-04-19T12:29:38.165Z,34.62
2018-04-19T12:32:03.917Z,34.46
2018-04-19T12:34:29.662Z,33.87
2018-04-19T12:36:55.415Z,33.22
2018-04-19T12:39:21.148Z,34.07
2018-04-19T12:41:46.896Z,37.06
2018-04-19T12:44:12.660Z,33.41
2018-04-19T12:46:38.418Z,34.64
2018-04-19T12:49:04.169Z,35.25
2018-04-19T12:51:29.928Z,34.46
2018-04-19T12:53:55.677Z,34.71
2018-04-19T12:56:21.407Z,35.08
2018-04-19T12:58:47.165Z,34.32
2018-04-19T13:01:12.916Z,34.63
2018-04-19T13:03:38.664Z,35.40
2018-04-19T13:06:04.451Z,34.92
2018-04-19T13:08:30.204Z,34.30
2018-04-19T13:10:55.948Z,36.96
2018-04-19T13:13:21.688Z,34.78
2018-04-19T13:15:47.438Z,34.26
2018-04-19T13:18:13.201Z,34.22
2018-04-19T13:20:38.944Z,35.26
2018-04-19T13:23:04.702Z,33.30
2018-04-19T13:25:30.477Z,34.14
2018-04-19T13:27:56.237Z,33.20
2018-04-19T13:30:21.990Z,32.68
2018-04-19T13:32:47.741Z,32.70
2018-04-19T13:35:13.500Z,32.91
2018-04-19T13:37:39.247Z,32.38
2018-04-19T13:40:05.008Z,33.34
2018-04-19T13:42:30.759Z,33.08
2018-04-19T13:44:56.523Z,33.12
2018-04-19T13:47:22.270Z,32.54
2018-04-19T13:49:48.038Z,33.29
2018-04-19T13:52:13.783Z,33.74
2018-04-19T13:54:39.551Z,33.07
2018-04-19T13:57:05.298Z,33.78
2018-04-19T13:59:31.048Z,33.96
2018-04-19T14:01:56.807Z,34.50
2018-04-19T14:04:22.540Z,34.85
2018-04-19T14:06:48.279Z,34.16
2018-04-19T14:09:14.033Z,35.82
2018-04-19T14:11:39.780Z,33.93
2018-04-19T14:14:05.525Z,34.30
2018-04-19T14:16:31.265Z,34.78
2018-04-19T14:18:57.028Z,35.94
2018-04-19T14:21:22.782Z,35.30
2018-04-19T14:23:48.525Z,35.94
2018-04-19T14:26:14.291Z,35.25
2018-04-19T14:28:40.038Z,36.51
2018-04-19T14:31:05.793Z,36.42
2018-04-19T14:33:31.544Z,37.06
2018-04-19T14:35:57.295Z,36.30
2018-04-19T14:38:23.063Z,35.98
2018-04-19T14:40:48.808Z,35.67
2018-04-19T14:43:14.557Z,36.07
2018-04-19T14:45:40.347Z,36.33
2018-04-19T14:48:06.093Z,36.07
2018-04-19T14:50:31.868Z,36.17
2018-04-19T14:52:57.604Z,35.45
2018-04-19T14:55:23.367Z,35.66
2018-04-19T14:57:49.894Z,35.46
2018-04-19T15:00:17.729Z,36.29
2018-04-19T15:02:43.630Z,35.78
2018-04-19T15:05:09.374Z,35.11
2018-04-19T15:07:35.131Z,36.01
2018-04-19T15:10:00.895Z,36.30
2018-04-19T15:12:26.645Z,35.91
2018-04-19T15:14:52.392Z,35.96
2018-04-19T15:17:18.137Z,35.85
2018-04-19T15:19:43.890Z,36.54
2018-04-19T15:22:09.632Z,36.38
2018-04-19T15:24:35.386Z,36.45
2018-04-19T15:27:01.133Z,36.40
2018-04-19T15:29:26.882Z,36.91
2018-04-19T15:31:52.659Z,37.16
2018-04-19T15:34:18.392Z,36.51
2018-04-19T15:36:44.185Z,37.76
2018-04-19T15:39:09.920Z,36.84
2018-04-19T15:41:35.704Z,36.84
2018-04-19T15:44:01.452Z,36.57
2018-04-19T15:46:27.196Z,36.89
2018-04-19T15:48:52.936Z,36.50
2018-04-19T15:51:18.688Z,36.43
2018-04-19T15:53:44.429Z,37.29
2018-04-19T15:56:10.172Z,37.88
2018-04-19T15:58:35.914Z,37.22
2018-04-19T16:01:01.664Z,37.87
2018-04-19T16:03:27.407Z,39.23
2018-04-19T16:05:53.180Z,39.46
2018-04-19T16:08:18.933Z,39.69
2018-04-19T16:10:44.690Z,39.27
2018-04-19T16:13:10.431Z,39.98
2018-04-19T16:15:36.177Z,39.61
2018-04-19T16:18:01.928Z,39.34
2018-04-19T16:20:27.685Z,38.64
2018-04-19T16:22:53.414Z,38.48
2018-04-19T16:25:19.165Z,42.10
2018-04-19T16:27:44.905Z,45.91
2018-04-19T16:30:10.653Z,46.97
2018-04-19T16:32:36.404Z,47.93
2018-04-19T16:35:02.213Z,48.22
2018-04-19T16:37:28.023Z,48.87
2018-04-19T16:39:53.716Z,49.32
2018-04-19T16:42:19.472Z,49.67
2018-04-19T16:44:45.265Z,49.79
2018-04-19T16:47:10.971Z,49.50
2018-04-19T16:49:37.141Z,49.84
2018-04-19T16:52:02.904Z,49.78
2018-04-19T16:54:28.642Z,49.77
2018-04-19T16:56:54.409Z,50.33
2018-04-19T16:59:20.148Z,50.40
2018-04-19T17:01:45.921Z,50.27
2018-04-19T17:04:11.654Z,50.86
2018-04-19T17:06:37.431Z,51.04
2018-04-19T17:09:03.185Z,50.86
2018-04-19T17:11:28.932Z,51.21
2018-04-19T17:13:54.828Z,51.93
2018-04-19T17:16:20.598Z,52.09
2018-04-19T17:18:46.327Z,52.86
2018-04-19T17:21:12.072Z,53.63
2018-04-19T17:23:37.820Z,53.82
2018-04-19T17:26:03.587Z,54.48
2018-04-19T17:28:29.323Z,54.32
2018-04-19T17:30:55.081Z,54.29
2018-04-19T17:33:20.825Z,55.18
2018-04-19T17:35:46.574Z,55.13
2018-04-19T17:38:12.313Z,55.66
2018-04-19T17:40:38.059Z,56.05
2018-04-19T17:43:03.811Z,56.60
2018-04-19T17:45:29.561Z,57.24
2018-04-19T17:47:55.302Z,57.53
2018-04-19T17:50:21.049Z,58.30
2018-04-19T17:52:46.859Z,57.98
2018-04-19T17:55:12.586Z,58.69
2018-04-19T17:57:38.339Z,59.07
2018-04-19T18:00:04.082Z,59.92
2018-04-19T18:02:29.836Z,60.67
2018-04-19T18:04:55.573Z,60.87
2018-04-19T18:07:21.329Z,60.92
2018-04-19T18:09:47.065Z,61.25
2018-04-19T18:12:12.830Z,61.96
2018-04-19T18:14:38.593Z,62.11
2018-04-19T18:17:04.354Z,62.72
2018-04-19T18:19:30.100Z,63.28
2018-04-19T18:21:55.849Z,63.61
2018-04-19T18:24:21.582Z,63.99
2018-04-19T18:26:47.341Z,63.73
2018-04-19T18:29:13.082Z,64.13
2018-04-19T18:31:38.844Z,64.20
2018-04-19T18:34:04.572Z,64.44
2018-04-19T18:36:30.325Z,65.02
2018-04-19T18:38:56.076Z,64.84
2018-04-19T18:41:21.820Z,65.13
2018-04-19T18:43:48.463Z,65.85
2018-04-19T18:46:14.276Z,66.31
2018-04-19T18:48:40.033Z,66.75
2018-04-19T18:51:05.797Z,67.02
2018-04-19T18:53:31.548Z,67.08
2018-04-19T18:55:57.277Z,67.57
2018-04-19T18:58:23.057Z,67.74
2018-04-19T19:00:48.785Z,68.02
2018-04-19T19:03:14.528Z,68.20
2018-04-19T19:05:40.270Z,68.41
2018-04-19T19:08:06.025Z,68.83
2018-04-19T19:10:31.772Z,68.89
2018-04-19T19:12:57.521Z,69.13
2018-04-19T19:18:46.652Z,69.92
2018-04-19T19:21:12.396Z,70.22
2018-04-19T19:23:38.157Z,70.32
2018-04-19T19:26:03.905Z,70.74
2018-04-19T19:28:29.648Z,70.97
2018-04-19T19:30:55.371Z,70.97
2018-04-19T19:33:21.124Z,71.08
2018-04-19T19:35:46.869Z,71.38
2018-04-19T19:38:12.602Z,71.57
2018-04-19T19:40:38.345Z,71.64
2018-04-19T19:43:04.092Z,72.06
2018-04-19T19:45:29.894Z,72.09
2018-04-19T19:47:55.601Z,72.00
2018-04-19T19:50:21.349Z,72.03
2018-04-19T19:52:47.117Z,71.78
2018-04-19T19:55:12.861Z,71.90
2018-04-19T19:57:38.637Z,71.69
2018-04-19T20:00:04.391Z,71.83
2018-04-19T20:02:30.250Z,72.30
2018-04-19T20:04:56.117Z,72.39
2018-04-19T20:07:21.869Z,72.55
2018-04-19T20:09:47.610Z,72.70
2018-04-19T20:12:13.369Z,72.86
2018-04-19T20:14:39.166Z,73.14
2018-04-19T20:17:05.109Z,73.47
2018-04-19T20:19:30.913Z,73.11
2018-04-19T20:21:56.623Z,72.76
2018-04-19T20:24:22.396Z,72.74
2018-04-19T20:26:48.129Z,73.05
2018-04-19T20:29:13.875Z,73.16
2018-04-19T20:31:39.615Z,73.60
2018-04-19T20:34:05.361Z,73.99
2018-04-19T20:36:31.091Z,74.33
2018-04-19T20:38:57.853Z,74.09
2018-04-19T20:41:24.458Z,73.92
2018-04-19T20:43:50.229Z,73.59
2018-04-19T20:46:15.984Z,73.03
2018-04-19T20:48:41.730Z,73.46
2018-04-19T20:51:07.642Z,73.57
2018-04-19T20:53:33.552Z,73.81
2018-04-19T20:55:59.291Z,74.94
2018-04-19T20:58:25.417Z,74.64
2018-04-19T21:00:51.205Z,74.43
2018-04-19T21:03:24.023Z,74.32
2018-04-19T21:05:49.992Z,74.80
2018-04-19T21:08:15.760Z,75.09
2018-04-19T21:10:41.613Z,75.33
2018-04-19T21:13:07.414Z,74.77
2018-04-19T21:15:33.144Z,75.21
2018-04-19T21:17:58.900Z,76.18
2018-04-19T21:20:24.849Z,77.01
2018-04-19T21:22:50.680Z,77.18
2018-04-19T21:25:16.412Z,77.14
2018-04-19T21:27:42.173Z,77.21
2018-04-19T21:30:07.932Z,77.09
2018-04-19T21:32:33.675Z,77.05
2018-04-19T21:34:59.419Z,77.24
2018-04-19T21:37:25.152Z,77.01
2018-04-19T21:39:50.891Z,77.34
2018-04-19T21:42:16.623Z,77.44
2018-04-19T21:44:42.367Z,77.73
2018-04-19T21:47:08.087Z,77.88
2018-04-19T21:49:33.845Z,78.08
2018-04-19T21:51:59.602Z,78.13
2018-04-19T21:54:25.354Z,78.05
2018-04-19T21:56:51.096Z,78.80
2018-04-19T21:59:16.842Z,78.98
2018-04-19T22:01:42.650Z,78.81
2018-04-19T22:04:08.356Z,78.86
2018-04-19T22:06:34.096Z,78.01
2018-04-19T22:08:59.846Z,79.03
2018-04-19T22:11:25.597Z,79.35
2018-04-19T22:13:51.332Z,79.63
2018-04-19T22:16:17.072Z,78.98
2018-04-19T22:18:42.816Z,79.34
2018-04-19T22:21:08.545Z,78.67
2018-04-19T22:23:34.300Z,78.69
2018-04-19T22:26:00.048Z,78.76
2018-04-19T22:28:25.804Z,80.33
2018-04-19T22:30:51.561Z,80.20
2018-04-19T22:33:17.318Z,81.44
2018-04-19T22:35:43.053Z,81.52
2018-04-19T22:38:08.798Z,82.01
2018-04-19T22:40:34.540Z,82.35
2018-04-19T22:43:00.668Z,82.06
2018-04-19T22:45:26.823Z,81.98
2018-04-19T22:47:52.933Z,81.54
2018-04-19T22:50:19.058Z,81.45
2018-04-19T22:52:45.185Z,81.41
2018-04-19T22:55:10.984Z,81.81
2018-04-19T22:57:36.736Z,81.31
2018-04-19T23:00:02.492Z,81.58
2018-04-19T23:02:28.229Z,81.75
2018-04-19T23:04:53.968Z,81.79
2018-04-19T23:07:19.688Z,82.27
2018-04-19T23:09:45.433Z,81.99
2018-04-19T23:12:11.177Z,83.11
2018-04-19T23:14:36.913Z,84.48
2018-04-19T23:17:02.661Z,83.27
2018-04-19T23:19:28.400Z,83.10
2018-04-19T23:21:54.128Z,82.93
2018-04-19T23:24:19.872Z,82.84
2018-04-19T23:26:45.599Z,82.87
2018-04-19T23:29:11.348Z,83.00
2018-04-19T23:31:37.092Z,83.08
2018-04-19T23:34:02.842Z,83.01
2018-04-19T23:36:28.567Z,82.84
2018-04-19T23:38:54.323Z,83.33
2018-04-19T23:41:20.057Z,83.49
2018-04-19T23:43:45.797Z,83.50
2018-04-19T23:46:11.559Z,83.40
2018-04-19T23:48:37.292Z,83.61
2018-04-19T23:51:03.048Z,83.59
2018-04-19T23:53:28.798Z,83.83
2018-04-19T23:55:54.552Z,84.03
2018-04-19T23:58:20.288Z,84.09
